createdAt,value
2023-01-19T00:01:37.872Z,81.30
2023-01-19T00:04:04.750Z,81.40
2023-01-19T00:06:34.159Z,81.50
2023-01-19T00:09:00.896Z,81.50
2023-01-19T00:11:27.652Z,81.70
2023-01-19T00:13:58.930Z,81.80
2023-01-19T00:16:29.662Z,81.90
2023-01-19T00:19:03.975Z,81.90
2023-01-19T00:21:30.830Z,81.80
2023-01-19T00:23:57.533Z,82.00
2023-01-19T00:26:24.402Z,81.90
2023-01-19T00:28:51.339Z,82.80
2023-01-19T00:31:20.634Z,81.90
2023-01-19T00:33:51.559Z,82.10
2023-01-19T00:36:19.339Z,82.00
2023-01-19T00:38:46.064Z,82.10
2023-01-19T00:41:12.941Z,82.10
2023-01-19T00:43:39.704Z,83.00
2023-01-19T00:46:06.718Z,82.10
2023-01-19T00:48:33.479Z,82.10
2023-01-19T00:51:00.317Z,82.20
2023-01-19T00:53:32.456Z,82.40
2023-01-19T00:56:01.178Z,82.40
2023-01-19T00:58:28.088Z,82.40
2023-01-19T01:00:57.472Z,82.40
2023-01-19T01:03:30.793Z,82.40
2023-01-19T01:06:06.961Z,82.40
2023-01-19T01:08:34.008Z,82.40
2023-01-19T01:11:01.283Z,82.40
2023-01-19T01:13:28.399Z,82.30
2023-01-19T01:15:57.163Z,82.40
2023-01-19T01:18:24.090Z,82.50
2023-01-19T01:21:00.672Z,82.60
2023-01-19T01:23:28.533Z,82.70
2023-01-19T01:25:55.207Z,82.70
2023-01-19T01:28:22.042Z,82.80
2023-01-19T01:30:56.475Z,83.60
2023-01-19T01:33:41.128Z,82.80
2023-01-19T01:36:10.029Z,82.80
2023-01-19T01:38:36.849Z,82.90
2023-01-19T01:41:04.086Z,82.90
2023-01-19T01:43:53.467Z,82.90
2023-01-19T01:46:20.877Z,82.80
2023-01-19T01:49:15.108Z,82.80
2023-01-19T01:51:53.320Z,82.70
2023-01-19T01:54:26.799Z,82.90
2023-01-19T01:56:59.497Z,82.90
2023-01-19T01:59:39.110Z,82.80
2023-01-19T02:02:29.655Z,82.80
2023-01-19T02:05:00.763Z,82.70
2023-01-19T02:08:04.753Z,82.80
2023-01-19T02:10:51.208Z,82.80
2023-01-19T02:13:25.561Z,82.80
2023-01-19T02:15:59.278Z,82.90
2023-01-19T02:18:29.468Z,82.90
2023-01-19T02:21:20.272Z,83.10
2023-01-19T02:23:51.375Z,83.10
2023-01-19T02:26:25.810Z,83.10
2023-01-19T02:29:01.289Z,83.30
2023-01-19T02:31:30.316Z,83.20
2023-01-19T02:33:57.959Z,83.30
2023-01-19T02:36:35.820Z,83.40
2023-01-19T02:39:04.913Z,83.40
2023-01-19T02:41:38.813Z,83.40
2023-01-19T02:44:08.136Z,83.50
2023-01-19T02:46:35.153Z,83.50
2023-01-19T02:49:02.052Z,83.50
2023-01-19T02:51:29.263Z,83.50
2023-01-19T02:54:02.208Z,83.60
2023-01-19T02:57:00.125Z,83.60
2023-01-19T02:59:45.398Z,83.70
2023-01-19T03:02:16.688Z,83.60
2023-01-19T03:05:17.632Z,83.70
2023-01-19T03:07:59.567Z,83.70
2023-01-19T03:10:52.834Z,83.80
2023-01-19T03:13:45.621Z,83.80
2023-01-19T03:16:45.608Z,83.80
2023-01-19T03:19:35.209Z,83.90
2023-01-19T03:22:11.031Z,83.90
2023-01-19T03:24:42.264Z,83.90
2023-01-19T03:27:25.366Z,84.00
2023-01-19T03:30:04.529Z,84.00
2023-01-19T03:32:47.654Z,84.10
2023-01-19T03:35:17.057Z,84.10
2023-01-19T03:37:50.566Z,84.20
2023-01-19T03:40:17.603Z,84.20
2023-01-19T03:42:45.074Z,84.30
2023-01-19T03:45:13.234Z,84.30
2023-01-19T03:47:40.227Z,84.40
2023-01-19T03:50:13.814Z,84.30
2023-01-19T03:52:40.619Z,84.20
2023-01-19T03:55:07.985Z,84.10
2023-01-19T03:57:34.692Z,84.10
2023-01-19T04:00:01.662Z,84.10
2023-01-19T04:02:28.393Z,84.10
2023-01-19T04:04:55.197Z,84.20
2023-01-19T04:07:21.984Z,84.20
2023-01-19T04:09:48.796Z,84.30
2023-01-19T04:12:16.219Z,84.30
2023-01-19T04:14:43.020Z,84.40
2023-01-19T04:17:10.394Z,84.30
2023-01-19T04:19:37.349Z,84.40
2023-01-19T04:22:04.909Z,84.50
2023-01-19T04:24:31.631Z,84.40
2023-01-19T04:26:58.458Z,84.40
2023-01-19T04:29:25.415Z,85.30
2023-01-19T04:31:52.104Z,84.60
2023-01-19T04:34:20.941Z,84.60
2023-01-19T04:36:51.250Z,84.80
2023-01-19T04:39:18.016Z,84.70
2023-01-19T04:41:44.746Z,84.80
2023-01-19T04:44:11.671Z,84.80
2023-01-19T04:46:41.739Z,84.80
2023-01-19T04:49:09.416Z,84.90
2023-01-19T04:51:36.911Z,84.90
2023-01-19T04:54:04.074Z,84.90
2023-01-19T04:56:31.001Z,85.00
2023-01-19T04:58:57.799Z,85.80
2023-01-19T05:01:24.823Z,85.00
2023-01-19T05:03:54.929Z,85.10
2023-01-19T05:06:21.675Z,85.10
2023-01-19T05:08:48.564Z,85.10
2023-01-19T05:11:15.283Z,85.10
2023-01-19T05:13:42.141Z,85.10
2023-01-19T05:16:08.988Z,85.30
2023-01-19T05:18:37.030Z,85.10
2023-01-19T05:21:04.387Z,85.20
2023-01-19T05:23:32.666Z,85.30
2023-01-19T05:26:01.942Z,85.20
2023-01-19T05:28:30.927Z,85.40
2023-01-19T05:30:57.870Z,85.30
2023-01-19T05:33:25.419Z,85.30
2023-01-19T05:35:53.300Z,85.30
2023-01-19T05:38:34.276Z,85.40
2023-01-19T05:41:01.880Z,85.50
2023-01-19T05:43:28.788Z,85.40
2023-01-19T05:45:58.305Z,85.40
2023-01-19T05:48:25.121Z,85.50
2023-01-19T05:50:51.882Z,85.50
2023-01-19T05:53:18.688Z,85.50
2023-01-19T05:55:45.478Z,85.60
2023-01-19T05:58:12.203Z,85.50
2023-01-19T06:00:38.930Z,85.60
2023-01-19T06:03:06.586Z,86.50
2023-01-19T06:05:34.005Z,85.70
2023-01-19T06:08:01.263Z,85.60
2023-01-19T06:10:28.383Z,85.70
2023-01-19T06:12:55.185Z,85.60
2023-01-19T06:15:22.796Z,85.70
2023-01-19T06:17:49.600Z,85.70
2023-01-19T06:20:16.687Z,85.80
2023-01-19T06:22:43.465Z,85.70
2023-01-19T06:25:10.496Z,85.70
2023-01-19T06:27:37.261Z,85.70
2023-01-19T06:30:04.683Z,85.80
2023-01-19T06:32:34.351Z,85.80
2023-01-19T06:35:01.289Z,85.80
2023-01-19T06:37:32.530Z,85.80
2023-01-19T06:39:59.284Z,85.80
2023-01-19T06:42:26.168Z,85.80
2023-01-19T06:44:55.538Z,85.80
2023-01-19T06:47:22.393Z,85.80
2023-01-19T06:49:51.946Z,85.90
2023-01-19T06:52:19.985Z,86.00
2023-01-19T06:54:47.066Z,85.90
2023-01-19T06:57:14.547Z,86.00
2023-01-19T06:59:42.099Z,86.00
2023-01-19T07:02:26.197Z,86.00
2023-01-19T07:04:55.362Z,86.00
2023-01-19T07:07:25.784Z,86.00
2023-01-19T07:09:54.033Z,86.00
2023-01-19T07:12:21.503Z,86.00
2023-01-19T07:14:51.790Z,86.20
2023-01-19T07:17:19.515Z,86.20
2023-01-19T07:19:48.398Z,86.20
2023-01-19T07:22:15.222Z,86.20
2023-01-19T07:24:42.034Z,86.20
2023-01-19T07:27:09.262Z,86.30
2023-01-19T07:29:39.326Z,87.10
2023-01-19T07:32:06.271Z,86.50
2023-01-19T07:34:36.052Z,86.40
2023-01-19T07:37:03.811Z,86.50
2023-01-19T07:39:31.983Z,86.50
2023-01-19T07:41:58.744Z,86.50
2023-01-19T07:44:25.566Z,86.50
2023-01-19T07:46:52.316Z,86.50
2023-01-19T07:49:20.665Z,86.60
2023-01-19T07:51:47.571Z,86.70
2023-01-19T07:54:14.661Z,86.70
2023-01-19T07:56:44.496Z,86.70
2023-01-19T07:59:11.576Z,86.70
2023-01-19T08:01:41.283Z,86.70
2023-01-19T08:04:08.213Z,86.80
2023-01-19T08:06:37.089Z,86.80
2023-01-19T08:09:07.383Z,86.80
2023-01-19T08:11:34.223Z,86.90
2023-01-19T08:14:01.106Z,86.90
2023-01-19T08:16:28.014Z,87.00
2023-01-19T08:18:55.315Z,87.00
2023-01-19T08:21:22.245Z,87.00
2023-01-19T08:23:56.586Z,87.00
2023-01-19T08:26:39.185Z,87.10
2023-01-19T08:29:05.965Z,87.10
2023-01-19T08:31:33.460Z,87.20
2023-01-19T08:34:00.349Z,87.20
2023-01-19T08:36:27.154Z,87.10
2023-01-19T08:38:54.204Z,87.10
2023-01-19T08:41:22.396Z,87.20
2023-01-19T08:43:52.527Z,87.20
2023-01-19T08:46:22.234Z,87.20
2023-01-19T08:48:50.415Z,87.20
2023-01-19T08:51:18.217Z,87.20
2023-01-19T08:53:44.934Z,87.30
2023-01-19T08:56:14.667Z,87.20
2023-01-19T08:58:43.072Z,87.30
2023-01-19T09:01:10.869Z,87.80
2023-01-19T09:03:37.780Z,89.20
2023-01-19T09:06:09.028Z,88.60
2023-01-19T09:08:35.897Z,87.00
2023-01-19T09:11:03.201Z,86.50
2023-01-19T09:13:33.135Z,86.30
2023-01-19T09:16:03.699Z,86.30
2023-01-19T09:18:30.609Z,86.40
2023-01-19T09:20:57.880Z,86.50
2023-01-19T09:23:25.421Z,86.50
2023-01-19T09:25:59.537Z,86.60
2023-01-19T09:28:26.419Z,86.80
2023-01-19T09:30:53.269Z,86.90
2023-01-19T09:33:20.598Z,87.70
2023-01-19T09:35:48.716Z,86.90
2023-01-19T09:38:16.850Z,87.00
2023-01-19T09:40:53.146Z,87.10
2023-01-19T09:44:04.196Z,87.20
2023-01-19T09:46:39.584Z,87.00
2023-01-19T09:49:11.956Z,87.00
2023-01-19T09:51:43.721Z,87.10
2023-01-19T09:54:19.867Z,87.40
2023-01-19T09:56:51.342Z,87.50
2023-01-19T09:59:21.848Z,87.50
2023-01-19T10:02:20.750Z,87.60
2023-01-19T10:05:03.242Z,87.60
2023-01-19T10:07:36.597Z,87.60
2023-01-19T10:10:22.725Z,87.60
2023-01-19T10:12:52.492Z,87.50
2023-01-19T10:15:45.956Z,87.60
2023-01-19T10:18:15.755Z,87.50
2023-01-19T10:21:00.112Z,87.60
2023-01-19T10:23:48.772Z,87.60
2023-01-19T10:26:24.364Z,87.60
2023-01-19T10:29:30.017Z,87.70
2023-01-19T10:32:19.676Z,87.50
2023-01-19T10:34:47.767Z,87.50
2023-01-19T10:37:31.897Z,87.60
2023-01-19T10:40:11.903Z,87.60
2023-01-19T10:42:40.589Z,87.60
2023-01-19T10:45:26.151Z,87.80
2023-01-19T10:47:55.142Z,87.80
2023-01-19T10:50:32.939Z,87.70
2023-01-19T10:53:03.734Z,87.60
2023-01-19T10:55:32.042Z,87.70
2023-01-19T10:58:00.171Z,87.50
2023-01-19T11:00:31.725Z,87.70
2023-01-19T11:02:58.681Z,87.60
2023-01-19T11:05:28.256Z,87.50
2023-01-19T11:07:57.782Z,87.50
2023-01-19T11:10:29.921Z,87.70
2023-01-19T11:13:12.702Z,87.70
2023-01-19T11:15:53.794Z,87.60
2023-01-19T11:18:32.820Z,87.40
2023-01-19T11:21:07.799Z,87.30
2023-01-19T11:23:43.037Z,87.40
2023-01-19T11:26:25.388Z,87.30
2023-01-19T11:29:02.108Z,87.30
2023-01-19T11:31:29.183Z,87.30
2023-01-19T11:34:17.074Z,87.40
2023-01-19T11:37:05.816Z,87.40
2023-01-19T11:39:46.269Z,87.30
2023-01-19T11:42:14.699Z,87.10
2023-01-19T11:44:58.356Z,87.00
2023-01-19T11:47:30.965Z,87.10
2023-01-19T11:50:29.499Z,87.00
2023-01-19T11:53:01.417Z,86.80
2023-01-19T11:55:49.404Z,86.90
2023-01-19T11:58:18.373Z,86.80
2023-01-19T12:00:57.412Z,86.70
2023-01-19T12:03:50.052Z,86.60
2023-01-19T12:06:31.465Z,86.50
2023-01-19T12:09:15.163Z,86.60
2023-01-19T12:11:46.361Z,86.40
2023-01-19T12:14:24.480Z,86.40
2023-01-19T12:16:53.423Z,86.50
2023-01-19T12:19:29.610Z,86.30
2023-01-19T12:21:56.757Z,86.30
2023-01-19T12:24:41.079Z,86.00
2023-01-19T12:27:36.857Z,85.80
2023-01-19T12:30:30.327Z,85.80
2023-01-19T12:33:30.889Z,85.80
2023-01-19T12:35:57.959Z,85.80
2023-01-19T12:38:36.965Z,85.60
2023-01-19T12:41:25.948Z,85.60
2023-01-19T12:44:11.380Z,85.60
2023-01-19T12:47:06.447Z,85.60
2023-01-19T12:49:49.319Z,85.50
2023-01-19T12:52:41.532Z,85.50
2023-01-19T12:55:33.385Z,85.20
2023-01-19T12:58:24.713Z,85.10
2023-01-19T13:01:12.979Z,84.90
2023-01-19T13:03:44.467Z,85.10
2023-01-19T13:06:11.285Z,84.80
2023-01-19T13:09:00.952Z,84.80
2023-01-19T13:11:32.619Z,84.70
2023-01-19T13:14:00.891Z,84.60
2023-01-19T13:16:27.787Z,84.60
2023-01-19T13:19:06.804Z,84.60
2023-01-19T13:21:51.198Z,84.50
2023-01-19T13:24:27.616Z,84.50
2023-01-19T13:26:57.991Z,84.30
2023-01-19T13:29:31.924Z,84.20
2023-01-19T13:32:03.967Z,83.90
2023-01-19T13:34:50.523Z,83.70
2023-01-19T13:37:23.665Z,83.10
2023-01-19T13:39:55.223Z,83.30
2023-01-19T13:42:37.959Z,83.10
2023-01-19T13:45:28.286Z,83.80
2023-01-19T13:47:58.285Z,82.80
2023-01-19T13:50:31.322Z,82.70
2023-01-19T13:52:59.642Z,82.50
2023-01-19T13:55:28.989Z,82.50
2023-01-19T13:57:57.095Z,82.40
2023-01-19T14:00:27.843Z,82.40
2023-01-19T14:03:00.514Z,82.50
2023-01-19T14:05:29.047Z,82.60
2023-01-19T14:08:08.530Z,82.50
2023-01-19T14:10:37.307Z,82.60
2023-01-19T14:13:12.731Z,82.80
2023-01-19T14:15:40.811Z,82.80
2023-01-19T14:18:16.484Z,83.00
2023-01-19T14:21:06.069Z,83.00
2023-01-19T14:23:38.921Z,83.00
2023-01-19T14:26:07.454Z,83.00
2023-01-19T14:28:39.521Z,83.00
2023-01-19T14:31:22.896Z,83.10
2023-01-19T14:33:54.555Z,83.10
2023-01-19T14:36:28.758Z,83.10
2023-01-19T14:39:01.256Z,83.10
2023-01-19T14:41:34.403Z,83.10
2023-01-19T14:44:02.419Z,83.10
2023-01-19T14:46:29.934Z,83.20
2023-01-19T14:49:06.060Z,83.20
2023-01-19T14:51:33.115Z,83.30
2023-01-19T14:54:04.215Z,83.20
2023-01-19T14:56:33.263Z,83.10
2023-01-19T14:59:01.681Z,83.10
2023-01-19T15:01:28.962Z,83.00
2023-01-19T15:03:58.624Z,82.90
2023-01-19T15:06:26.563Z,82.80
2023-01-19T15:08:53.676Z,83.00
2023-01-19T15:11:33.955Z,82.80
2023-01-19T15:14:01.568Z,82.90
2023-01-19T15:16:31.661Z,82.90
2023-01-19T15:18:58.532Z,82.80
2023-01-19T15:21:28.535Z,82.90
2023-01-19T15:23:55.811Z,83.00
2023-01-19T15:26:25.267Z,82.90
2023-01-19T15:28:52.301Z,82.90
2023-01-19T15:31:21.910Z,82.90
2023-01-19T15:33:49.282Z,82.90
2023-01-19T15:36:21.410Z,82.90
2023-01-19T15:38:51.199Z,82.80
2023-01-19T15:41:26.565Z,82.90
2023-01-19T15:43:53.754Z,82.90
2023-01-19T15:46:21.478Z,82.90
2023-01-19T15:48:49.307Z,82.90
2023-01-19T15:51:21.226Z,83.00
2023-01-19T15:53:48.794Z,83.10
2023-01-19T15:56:20.192Z,83.00
2023-01-19T15:58:47.238Z,83.20
2023-01-19T16:01:19.051Z,83.10
2023-01-19T16:03:49.575Z,83.20
2023-01-19T16:06:17.795Z,83.30
2023-01-19T16:08:45.353Z,83.30
2023-01-19T16:11:15.115Z,83.30
2023-01-19T16:13:46.202Z,83.30
2023-01-19T16:16:17.042Z,83.30
2023-01-19T16:18:44.320Z,83.40
2023-01-19T16:21:11.267Z,83.40
2023-01-19T16:23:38.105Z,83.40
2023-01-19T16:26:23.791Z,83.50
2023-01-19T16:28:50.527Z,83.50
2023-01-19T16:31:17.503Z,83.50
2023-01-19T16:33:47.447Z,83.50
2023-01-19T16:36:23.117Z,83.60
2023-01-19T16:39:07.991Z,83.60
2023-01-19T16:41:38.638Z,83.60
2023-01-19T16:44:06.445Z,83.60
2023-01-19T16:46:36.045Z,83.70
2023-01-19T16:49:16.239Z,83.80
2023-01-19T16:51:43.031Z,83.80
2023-01-19T16:54:14.328Z,83.70
2023-01-19T16:56:41.570Z,83.90
2023-01-19T16:59:12.128Z,83.90
2023-01-19T17:01:39.531Z,84.00
2023-01-19T17:04:07.117Z,83.90
2023-01-19T17:06:34.156Z,83.90
2023-01-19T17:09:00.963Z,84.00
2023-01-19T17:11:30.738Z,84.00
2023-01-19T17:14:02.912Z,84.00
2023-01-19T17:16:32.109Z,84.10
2023-01-19T17:19:00.844Z,84.00
2023-01-19T17:21:28.325Z,84.10
2023-01-19T17:23:56.711Z,84.10
2023-01-19T17:26:28.404Z,84.00
2023-01-19T17:29:03.843Z,84.10
2023-01-19T17:31:32.147Z,84.20
2023-01-19T17:34:00.034Z,84.20
2023-01-19T17:36:28.832Z,84.20
2023-01-19T17:38:57.817Z,84.10
2023-01-19T17:41:27.593Z,84.30
2023-01-19T17:43:54.581Z,84.30
2023-01-19T17:46:24.810Z,84.30
2023-01-19T17:48:56.767Z,84.30
2023-01-19T17:51:24.251Z,84.30
2023-01-19T17:53:52.770Z,84.30
2023-01-19T17:56:22.968Z,84.20
2023-01-19T17:58:50.472Z,84.30
2023-01-19T18:01:22.360Z,84.30
2023-01-19T18:03:53.389Z,84.40
2023-01-19T18:06:20.748Z,84.40
2023-01-19T18:08:48.499Z,84.50
2023-01-19T18:11:17.685Z,84.50
2023-01-19T18:13:46.106Z,84.40
2023-01-19T18:16:16.002Z,84.40
2023-01-19T18:18:44.225Z,84.60
2023-01-19T18:21:13.393Z,85.40
2023-01-19T18:23:40.671Z,84.60
2023-01-19T18:26:13.747Z,84.50
2023-01-19T18:28:40.519Z,84.60
2023-01-19T18:31:09.268Z,85.30
2023-01-19T18:33:36.455Z,84.60
2023-01-19T18:36:03.838Z,84.60
2023-01-19T18:38:30.648Z,84.70
2023-01-19T18:41:05.868Z,84.80
2023-01-19T18:43:33.036Z,84.70
2023-01-19T18:46:03.252Z,84.70
2023-01-19T18:48:30.537Z,84.80
2023-01-19T18:50:57.859Z,84.80
2023-01-19T18:53:24.743Z,84.90
2023-01-19T18:55:56.795Z,84.80
2023-01-19T18:58:24.261Z,85.10
2023-01-19T19:00:51.606Z,85.00
2023-01-19T19:03:18.509Z,85.70
2023-01-19T19:05:45.412Z,85.00
2023-01-19T19:08:12.455Z,85.00
2023-01-19T19:10:41.217Z,85.00
2023-01-19T19:13:08.799Z,85.10
2023-01-19T19:15:35.628Z,85.00
2023-01-19T19:18:02.696Z,85.00
2023-01-19T19:20:29.514Z,85.00
2023-01-19T19:22:56.450Z,85.00
2023-01-19T19:25:23.432Z,85.00
2023-01-19T19:27:53.543Z,84.90
2023-01-19T19:30:21.278Z,85.00
2023-01-19T19:32:56.140Z,85.00
2023-01-19T19:35:23.987Z,84.90
2023-01-19T19:37:51.578Z,85.00
2023-01-19T19:40:18.500Z,85.00
2023-01-19T19:42:45.289Z,85.10
2023-01-19T19:45:12.516Z,85.10
2023-01-19T19:47:39.397Z,85.10
2023-01-19T19:50:06.566Z,85.10
2023-01-19T19:52:41.237Z,85.10
2023-01-19T19:55:09.543Z,85.20
2023-01-19T19:57:36.355Z,85.10
2023-01-19T20:00:05.307Z,85.20
2023-01-19T20:02:32.405Z,85.20
2023-01-19T20:04:59.256Z,85.20
2023-01-19T20:07:26.043Z,85.10
2023-01-19T20:09:55.118Z,85.20
2023-01-19T20:12:22.177Z,85.20
2023-01-19T20:14:49.181Z,85.30
2023-01-19T20:17:17.627Z,85.30
2023-01-19T20:19:46.376Z,85.30
2023-01-19T20:22:13.238Z,85.30
2023-01-19T20:24:40.118Z,85.30
2023-01-19T20:27:06.978Z,85.30
2023-01-19T20:29:36.522Z,85.40
2023-01-19T20:32:03.832Z,85.50
2023-01-19T20:34:33.531Z,85.60
2023-01-19T20:37:02.576Z,85.70
2023-01-19T20:39:34.625Z,85.60
2023-01-19T20:42:01.757Z,85.80
2023-01-19T20:44:28.946Z,85.70
2023-01-19T20:46:59.159Z,85.60
2023-01-19T20:49:26.235Z,86.40
2023-01-19T20:51:53.597Z,85.70
2023-01-19T20:54:23.168Z,85.70
2023-01-19T20:56:50.166Z,86.50
2023-01-19T20:59:17.553Z,85.70
2023-01-19T21:01:45.591Z,85.80
2023-01-19T21:04:12.790Z,85.80
2023-01-19T21:06:40.445Z,85.80
2023-01-19T21:09:08.558Z,85.80
2023-01-19T21:11:36.820Z,85.80
2023-01-19T21:14:04.628Z,85.90
2023-01-19T21:16:35.998Z,85.80
2023-01-19T21:19:03.203Z,85.90
2023-01-19T21:21:31.729Z,85.80
2023-01-19T21:24:00.472Z,85.90
2023-01-19T21:26:29.884Z,86.00
2023-01-19T21:29:01.075Z,86.10
2023-01-19T21:31:28.794Z,86.10
2023-01-19T21:33:59.051Z,86.20
2023-01-19T21:36:26.614Z,86.10
2023-01-19T21:38:55.691Z,86.10
2023-01-19T21:41:22.545Z,86.10
2023-01-19T21:43:49.471Z,86.10
2023-01-19T21:46:21.933Z,86.10
2023-01-19T21:48:51.950Z,86.20
2023-01-19T21:51:18.752Z,86.10
2023-01-19T21:53:45.572Z,86.20
2023-01-19T21:56:12.356Z,86.20
2023-01-19T21:58:39.112Z,86.20
2023-01-19T22:01:13.505Z,86.20
2023-01-19T22:03:41.642Z,86.70
2023-01-19T22:06:11.604Z,86.30
2023-01-19T22:08:39.684Z,86.30
2023-01-19T22:11:08.483Z,86.30
2023-01-19T22:13:36.191Z,86.30
2023-01-19T22:16:04.216Z,86.50
2023-01-19T22:18:31.090Z,86.50
2023-01-19T22:21:17.335Z,86.50
2023-01-19T22:23:49.787Z,86.50
2023-01-19T22:26:16.651Z,86.40
2023-01-19T22:28:43.855Z,86.40
2023-01-19T22:31:15.998Z,86.40
2023-01-19T22:33:47.671Z,86.50
2023-01-19T22:36:24.856Z,86.50
2023-01-19T22:39:06.400Z,86.50
2023-01-19T22:41:43.339Z,86.50
2023-01-19T22:44:20.206Z,86.50
2023-01-19T22:46:47.868Z,86.50
2023-01-19T22:49:16.980Z,86.50
2023-01-19T22:51:44.526Z,86.50
2023-01-19T22:54:11.608Z,86.50
2023-01-19T22:56:39.455Z,86.60
2023-01-19T22:59:06.752Z,86.60
2023-01-19T23:01:36.477Z,86.70
2023-01-19T23:04:14.735Z,86.70
2023-01-19T23:06:42.152Z,86.80
2023-01-19T23:09:12.466Z,86.70
2023-01-19T23:11:41.639Z,86.80
2023-01-19T23:14:12.116Z,86.80
2023-01-19T23:16:38.807Z,87.00
2023-01-19T23:19:06.884Z,86.90
2023-01-19T23:21:34.007Z,86.90
2023-01-19T23:24:02.778Z,86.90
2023-01-19T23:26:30.865Z,87.10
2023-01-19T23:29:00.333Z,87.10
2023-01-19T23:31:33.264Z,87.10
2023-01-19T23:34:07.088Z,87.00
2023-01-19T23:36:37.237Z,87.20
2023-01-19T23:39:09.906Z,87.20
2023-01-19T23:41:36.870Z,87.10
2023-01-19T23:44:05.323Z,87.00
2023-01-19T23:46:32.178Z,87.00
2023-01-19T23:48:58.992Z,87.00
2023-01-19T23:51:31.110Z,87.10
2023-01-19T23:53:59.269Z,87.10
2023-01-19T23:56:29.103Z,87.10
2023-01-19T23:59:02.261Z,87.20
